Explorer Of The Seas — C6SE4 — position and weather

sailwx.info

Track history (hours):
 
Tides and Currents Weather Stations Pressure Air Temp Water Temp Dewpoint Dewpoint Depression Visibility Wind Speed Wind Dir Waves Ship Positions

Explorer Of The Seas

Operator: Royal Caribbean Cruises Ltd

Last reported at 2018-Jul-21 09:36 UTC. Time now 2018-Jul-22 03:21 UTC.
Position N 49°04' W 126°42'.

Length 311 m; draft 9.1 m.

Type: Passenger vessel. MMSI: 311316000.

Date/timePositionNaut miles runAvg speedWind from/ knotsBaromVisibWave heightAir tempDewpointWater temp
2018-Jul-21 09:36N 49°04' W 126°42'2320.1
2018-Jul-21 08:26N 48°52' W 126°11'1320.3
2018-Jul-21 07:49N 48°46' W 125°55'720.5
2018-Jul-21 07:30N 48°43' W 125°46'3019.9
2018-Jul-21 05:58N 48°31' W 125°04'1021.5
2018-Jul-21 05:30N 48°31' W 124°48'1121.0
2018-Jul-21 05:00N 48°28' W 124°33'1020.7
2018-Jul-21 04:30N 48°24' W 124°19'6718.5
2018-Jul-21 00:53N 48°08' W 122°41'921.5
2018-Jul-21 00:27N 47°59' W 122°36'920.9
2018-Jul-21 00:00N 47°52' W 122°28'1020.8
2018-Jul-20 23:30N 47°41' W 122°27'5 8.9
2018-Jul-20 22:59N 47°38' W 122°23'0 0.0
2018-Jul-20 22:29N 47°38' W 122°23'0 0.0
2018-Jul-20 21:59N 47°38' W 122°23'0 0.0
2018-Jul-20 21:29N 47°38' W 122°23'0 0.0
2018-Jul-20 20:59N 47°38' W 122°23'0 0.0
2018-Jul-20 20:29N 47°38' W 122°23'0 0.0
2018-Jul-20 19:59N 47°38' W 122°23'0 0.0
2018-Jul-20 19:29N 47°38' W 122°23'0 0.0
2018-Jul-20 18:59N 47°38' W 122°23'0 0.0
2018-Jul-20 18:26N 47°38' W 122°23'0 0.0
2018-Jul-20 17:59N 47°38' W 122°23'0 0.0
2018-Jul-20 17:29N 47°38' W 122°23'0 0.0
2018-Jul-20 16:59N 47°38' W 122°23'0 0.0
2018-Jul-20 16:29N 47°38' W 122°23'0 0.0
2018-Jul-20 15:59N 47°38' W 122°23'0 0.0
2018-Jul-20 15:26N 47°38' W 122°23'0 0.0
2018-Jul-20 14:59N 47°38' W 122°23'0 0.0
2018-Jul-20 14:29N 47°38' W 122°23'0 0.0
2018-Jul-20 13:59N 47°38' W 122°23'0 0.0
2018-Jul-20 13:29N 47°38' W 122°23'0 0.0
2018-Jul-20 12:59N 47°38' W 122°23'0 0.0
2018-Jul-20 12:29N 47°38' W 122°23'1 1.1
2018-Jul-20 12:00N 47°37' W 122°24'611.9
2018-Jul-20 11:30N 47°43' W 122°28'815.5
2018-Jul-20 11:01N 47°50' W 122°28'713.9
2018-Jul-20 10:30N 47°57' W 122°33'1712.5
2018-Jul-20 09:09N 48°10' W 122°48'427.1
2018-Jul-20 09:00N 48°06' W 122°48'6201.1 270 / 251020.027.0 11.0 9.012.0
2018-Jul-20 08:58N 48°11' W 122°51'715.0
2018-Jul-20 08:30N 48°12' W 123°02'714.8
2018-Jul-20 08:00N 48°11' W 123°13'713.5
2018-Jul-20 07:30N 48°10' W 123°23'12 3.1
2018-Jul-20 03:38N 48°22' W 123°23'0 3.6
2018-Jul-20 03:30N 48°22' W 123°24'2 4.4
2018-Jul-20 03:00N 48°24' W 123°25'1 1.2
2018-Jul-20 02:29N 48°23' W 123°25'1 1.6
2018-Jul-20 02:00N 48°24' W 123°24'1 0.1
2018-Jul-19 14:50N 48°22' W 123°24'2013.0
2018-Jul-19 13:16N 48°13' W 123°52'616.2
2018-Jul-19 12:55N 48°15' W 124°00'716.7
2018-Jul-19 12:28N 48°18' W 124°10'716.0
2018-Jul-19 12:00N 48°21' W 124°20'4232.6
2018-Jul-19 12:00N 48°24' W 124°24'4 8.9 250 / 101020.410.8 11.0 9.015.0
2018-Jul-19 11:30N 48°24' W 124°30'714.9
2018-Jul-19 11:01N 48°28' W 124°41'815.1
2018-Jul-19 10:28N 48°28' W 124°53'815.5
2018-Jul-19 09:58N 48°29' W 125°05'715.5
2018-Jul-19 09:30N 48°29' W 125°16'815.9
2018-Jul-19 09:01N 48°33' W 125°26'3178.1
2018-Jul-19 09:00N 48°30' W 125°24'1021.6 310 / 141020.827.0 12.0 7.911.0
2018-Jul-19 08:31N 48°37' W 125°36'816.3
2018-Jul-19 08:01N 48°41' W 125°46'816.2
2018-Jul-19 07:31N 48°45' W 125°57'815.9
2018-Jul-19 07:01N 48°49' W 126°07'815.9
2018-Jul-19 06:30N 48°54' W 126°18'815.8
2018-Jul-19 05:59N 48°58' W 126°28'816.1
2018-Jul-19 05:31N 49°02' W 126°38'917.3
2018-Jul-19 05:01N 49°06' W 126°50'918.0
2018-Jul-19 04:30N 49°11' W 127°02'9118.0
2018-Jul-18 23:25N 49°59' W 129°02'3618.8
2018-Jul-18 21:30N 50°18' W 129°50'1223.8
2018-Jul-18 21:00N 50°24' W 130°06'17619.5 350 / 151024.927.0 15.011.313.0
2018-Jul-18 12:00N 52°48' W 132°48'4715.7 320 / 181022.227.0 12.0 7.914.0
2018-Jul-18 09:00N 53°30' W 133°24'34212.2 310 / 201021.410.8 12.0 7.915.0
2018-Jul-17 05:00N 59°06' W 135°18'   130 / 171017.010.8 13.011.112.0
2018-Jul-14 10:40N 49°16' W 127°11'318.7
2018-Jul-14 10:30N 49°14' W 127°07'1019.6
2018-Jul-14 10:00N 49°09' W 126°54'1019.6
2018-Jul-14 09:30N 49°04' W 126°41'1019.8
2018-Jul-14 09:00N 48°59' W 126°28'1019.7
2018-Jul-14 08:30N 48°54' W 126°15'1020.0
2018-Jul-14 08:00N 48°49' W 126°02'1120.4
2018-Jul-14 07:29N 48°43' W 125°48'1020.6
2018-Jul-14 06:58N 48°38' W 125°35'1021.4
2018-Jul-14 06:29N 48°33' W 125°21'1121.4
2018-Jul-14 05:59N 48°31' W 125°05'1021.5
2018-Jul-14 05:30N 48°31' W 124°50'1121.6
2018-Jul-14 05:01N 48°28' W 124°34'1122.0
2018-Jul-14 04:31N 48°24' W 124°19'1121.3
2018-Jul-14 03:59N 48°19' W 124°03'5218.6
2018-Jul-14 01:13N 48°11' W 122°47'1016.6
2018-Jul-14 00:35N 48°03' W 122°38'419.4
2018-Jul-14 00:24N 47°60' W 122°36'717.9
2018-Jul-14 00:00N 47°54' W 122°29'1020.1
2018-Jul-13 23:30N 47°44' W 122°26'714.4
2018-Jul-13 23:00N 47°37' W 122°23'1 1.0
2018-Jul-13 22:29N 47°38' W 122°23'0 0.0
2018-Jul-13 21:59N 47°38' W 122°23'0 0.0
2018-Jul-13 21:26N 47°38' W 122°23'0 0.0
2018-Jul-13 20:50N 47°38' W 122°23'0 0.0
2018-Jul-13 20:26N 47°38' W 122°23'0 0.0
2018-Jul-13 19:59N 47°38' W 122°23'0 0.0
2018-Jul-13 19:29N 47°38' W 122°23'0 0.0
2018-Jul-13 18:59N 47°38' W 122°23'0 0.0
2018-Jul-13 18:29N 47°38' W 122°23'0 0.0
2018-Jul-13 17:59N 47°38' W 122°23'0 0.0
2018-Jul-13 17:29N 47°38' W 122°23'0 0.0
2018-Jul-13 16:59N 47°38' W 122°23'0 0.0
2018-Jul-13 16:29N 47°38' W 122°23'0 0.0
2018-Jul-13 15:59N 47°38' W 122°23'0 0.0
2018-Jul-13 15:29N 47°38' W 122°23'0 0.0
2018-Jul-13 14:59N 47°38' W 122°23'0 0.0
2018-Jul-13 14:29N 47°38' W 122°23'0 0.0
2018-Jul-13 13:29N 47°38' W 122°23'0 0.0
2018-Jul-13 12:59N 47°38' W 122°23'0 0.0
2018-Jul-13 12:30N 47°38' W 122°23'1 2.1
2018-Jul-13 12:00N 47°37' W 122°24'510.6
2018-Jul-13 11:30N 47°42' W 122°28'613.0
2018-Jul-13 11:00N 47°48' W 122°28'612.8
2018-Jul-13 10:30N 47°55' W 122°30'1212.9
2018-Jul-13 09:33N 48°05' W 122°40'312.4
2018-Jul-13 09:19N 48°07' W 122°42'514.2
2018-Jul-13 08:57N 48°11' W 122°48'713.8
2018-Jul-13 08:28N 48°11' W 122°58'613.6
2018-Jul-13 08:01N 48°12' W 123°07'713.2
2018-Jul-13 07:30N 48°10' W 123°17'510.2
2018-Jul-13 07:00N 48°10' W 123°25'12 2.1
2018-Jul-13 01:28N 48°22' W 123°25'2 0.2
2018-Jul-12 14:58N 48°24' W 123°24'613.4
2018-Jul-12 14:29N 48°17' W 123°26'814.1
2018-Jul-12 13:56N 48°13' W 123°36'815.5
2018-Jul-12 13:27N 48°13' W 123°47'816.4
2018-Jul-12 12:57N 48°15' W 123°59'716.3
2018-Jul-12 12:30N 48°18' W 124°09'816.7
2018-Jul-12 12:00N 48°22' W 124°20'916.8
2018-Jul-12 11:29N 48°25' W 124°32'816.5
2018-Jul-12 11:00N 48°28' W 124°43'816.7
2018-Jul-12 10:30N 48°29' W 124°56'917.4
2018-Jul-12 10:00N 48°29' W 125°09'917.3
2018-Jul-12 09:30N 48°31' W 125°21'817.1
2018-Jul-12 09:00N 48°35' W 125°32'917.3
2018-Jul-12 08:30N 48°40' W 125°44'917.5
2018-Jul-12 08:00N 48°44' W 125°55'917.7
2018-Jul-12 07:30N 48°49' W 126°06'918.1
2018-Jul-12 07:00N 48°54' W 126°18'918.2
2018-Jul-12 06:30N 48°59' W 126°30'918.3
2018-Jul-12 06:00N 49°03' W 126°42'918.3
2018-Jul-12 05:30N 49°08' W 126°54'918.1
2018-Jul-12 05:00N 49°13' W 127°06'1018.1
2018-Jul-12 04:28N 49°18' W 127°18'3317.8
2018-Jul-12 02:36N 49°35' W 128°02'217.8
2018-Jul-12 02:30N 49°36' W 128°04'1417.7
2018-Jul-12 01:42N 49°44' W 128°23'317.7
2018-Jul-12 01:31N 49°45' W 128°27'917.7
2018-Jul-12 01:00N 49°50' W 128°39'918.0
2018-Jul-12 00:29N 49°55' W 128°52'817.9
2018-Jul-12 00:00N 49°59' W 129°03'1018.1
2018-Jul-11 23:29N 50°04' W 129°16'918.1
2018-Jul-11 23:00N 50°09' W 129°27'918.1
2018-Jul-11 22:30N 50°14' W 129°39'917.9
2018-Jul-11 22:00N 50°18' W 129°51'917.9
2018-Jul-11 21:30N 50°23' W 130°03'917.3
2018-Jul-11 21:01N 50°29' W 130°12'1417.7
2018-Jul-11 20:14N 50°41' W 130°24'517.7
2018-Jul-11 19:59N 50°44' W 130°28'1117.7
2018-Jul-11 19:22N 50°53' W 130°38'  
Track history (hours):
 
Tides and Currents Weather Stations Pressure Air Temp Water Temp Dewpoint Dewpoint Depression Visibility Wind Speed Wind Dir Waves Ship Positions

Explorer Of The Seas

Operator: Royal Caribbean Cruises Ltd

Last reported at 2018-Jul-21 09:36 UTC. Time now 2018-Jul-22 03:21 UTC.
Position N 49°04' W 126°42'.

Length 311 m; draft 9.1 m.

Type: Passenger vessel. MMSI: 311316000.

Date/timePositionNaut miles runAvg speedWind from/ knotsBaromVisibWave heightAir tempDewpointWater temp
2018-Jul-21 09:36N 49°04' W 126°42'2320.1
2018-Jul-21 08:26N 48°52' W 126°11'1320.3
2018-Jul-21 07:49N 48°46' W 125°55'720.5
2018-Jul-21 07:30N 48°43' W 125°46'3019.9
2018-Jul-21 05:58N 48°31' W 125°04'1021.5
2018-Jul-21 05:30N 48°31' W 124°48'1121.0
2018-Jul-21 05:00N 48°28' W 124°33'1020.7
2018-Jul-21 04:30N 48°24' W 124°19'6718.5
2018-Jul-21 00:53N 48°08' W 122°41'921.5
2018-Jul-21 00:27N 47°59' W 122°36'920.9
2018-Jul-21 00:00N 47°52' W 122°28'1020.8
2018-Jul-20 23:30N 47°41' W 122°27'5 8.9
2018-Jul-20 22:59N 47°38' W 122°23'0 0.0
2018-Jul-20 22:29N 47°38' W 122°23'0 0.0
2018-Jul-20 21:59N 47°38' W 122°23'0 0.0
2018-Jul-20 21:29N 47°38' W 122°23'0 0.0
2018-Jul-20 20:59N 47°38' W 122°23'0 0.0
2018-Jul-20 20:29N 47°38' W 122°23'0 0.0
2018-Jul-20 19:59N 47°38' W 122°23'0 0.0
2018-Jul-20 19:29N 47°38' W 122°23'0 0.0
2018-Jul-20 18:59N 47°38' W 122°23'0 0.0
2018-Jul-20 18:26N 47°38' W 122°23'0 0.0
2018-Jul-20 17:59N 47°38' W 122°23'0 0.0
2018-Jul-20 17:29N 47°38' W 122°23'0 0.0
2018-Jul-20 16:59N 47°38' W 122°23'0 0.0
2018-Jul-20 16:29N 47°38' W 122°23'0 0.0
2018-Jul-20 15:59N 47°38' W 122°23'0 0.0
2018-Jul-20 15:26N 47°38' W 122°23'0 0.0
2018-Jul-20 14:59N 47°38' W 122°23'0 0.0
2018-Jul-20 14:29N 47°38' W 122°23'0 0.0
2018-Jul-20 13:59N 47°38' W 122°23'0 0.0
2018-Jul-20 13:29N 47°38' W 122°23'0 0.0
2018-Jul-20 12:59N 47°38' W 122°23'0 0.0
2018-Jul-20 12:29N 47°38' W 122°23'1 1.1
2018-Jul-20 12:00N 47°37' W 122°24'611.9
2018-Jul-20 11:30N 47°43' W 122°28'815.5
2018-Jul-20 11:01N 47°50' W 122°28'713.9
2018-Jul-20 10:30N 47°57' W 122°33'1712.5
2018-Jul-20 09:09N 48°10' W 122°48'427.1
2018-Jul-20 09:00N 48°06' W 122°48'6201.1 270 / 251020.027.0 11.0 9.012.0
2018-Jul-20 08:58N 48°11' W 122°51'715.0
2018-Jul-20 08:30N 48°12' W 123°02'714.8
2018-Jul-20 08:00N 48°11' W 123°13'713.5
2018-Jul-20 07:30N 48°10' W 123°23'12 3.1
2018-Jul-20 03:38N 48°22' W 123°23'0 3.6
2018-Jul-20 03:30N 48°22' W 123°24'2 4.4
2018-Jul-20 03:00N 48°24' W 123°25'1 1.2
2018-Jul-20 02:29N 48°23' W 123°25'1 1.6
2018-Jul-20 02:00N 48°24' W 123°24'1 0.1
2018-Jul-19 14:50N 48°22' W 123°24'2013.0
2018-Jul-19 13:16N 48°13' W 123°52'616.2
2018-Jul-19 12:55N 48°15' W 124°00'716.7
2018-Jul-19 12:28N 48°18' W 124°10'716.0
2018-Jul-19 12:00N 48°21' W 124°20'4232.6
2018-Jul-19 12:00N 48°24' W 124°24'4 8.9 250 / 101020.410.8 11.0 9.015.0
2018-Jul-19 11:30N 48°24' W 124°30'714.9
2018-Jul-19 11:01N 48°28' W 124°41'815.1
2018-Jul-19 10:28N 48°28' W 124°53'815.5
2018-Jul-19 09:58N 48°29' W 125°05'715.5
2018-Jul-19 09:30N 48°29' W 125°16'815.9
2018-Jul-19 09:01N 48°33' W 125°26'3178.1
2018-Jul-19 09:00N 48°30' W 125°24'1021.6 310 / 141020.827.0 12.0 7.911.0
2018-Jul-19 08:31N 48°37' W 125°36'816.3
2018-Jul-19 08:01N 48°41' W 125°46'816.2
2018-Jul-19 07:31N 48°45' W 125°57'815.9
2018-Jul-19 07:01N 48°49' W 126°07'815.9
2018-Jul-19 06:30N 48°54' W 126°18'815.8
2018-Jul-19 05:59N 48°58' W 126°28'816.1
2018-Jul-19 05:31N 49°02' W 126°38'917.3
2018-Jul-19 05:01N 49°06' W 126°50'918.0
2018-Jul-19 04:30N 49°11' W 127°02'9118.0
2018-Jul-18 23:25N 49°59' W 129°02'3618.8
2018-Jul-18 21:30N 50°18' W 129°50'1223.8
2018-Jul-18 21:00N 50°24' W 130°06'17619.5 350 / 151024.927.0 15.011.313.0
2018-Jul-18 12:00N 52°48' W 132°48'4715.7 320 / 181022.227.0 12.0 7.914.0
2018-Jul-18 09:00N 53°30' W 133°24'34212.2 310 / 201021.410.8 12.0 7.915.0
2018-Jul-17 05:00N 59°06' W 135°18'   130 / 171017.010.8 13.011.112.0
2018-Jul-14 10:40N 49°16' W 127°11'318.7
2018-Jul-14 10:30N 49°14' W 127°07'1019.6
2018-Jul-14 10:00N 49°09' W 126°54'1019.6
2018-Jul-14 09:30N 49°04' W 126°41'1019.8
2018-Jul-14 09:00N 48°59' W 126°28'1019.7
2018-Jul-14 08:30N 48°54' W 126°15'1020.0
2018-Jul-14 08:00N 48°49' W 126°02'1120.4
2018-Jul-14 07:29N 48°43' W 125°48'1020.6
2018-Jul-14 06:58N 48°38' W 125°35'1021.4
2018-Jul-14 06:29N 48°33' W 125°21'1121.4
2018-Jul-14 05:59N 48°31' W 125°05'1021.5
2018-Jul-14 05:30N 48°31' W 124°50'1121.6
2018-Jul-14 05:01N 48°28' W 124°34'1122.0
2018-Jul-14 04:31N 48°24' W 124°19'1121.3
2018-Jul-14 03:59N 48°19' W 124°03'5218.6
2018-Jul-14 01:13N 48°11' W 122°47'1016.6
2018-Jul-14 00:35N 48°03' W 122°38'419.4
2018-Jul-14 00:24N 47°60' W 122°36'717.9
2018-Jul-14 00:00N 47°54' W 122°29'1020.1
2018-Jul-13 23:30N 47°44' W 122°26'714.4
2018-Jul-13 23:00N 47°37' W 122°23'1 1.0
2018-Jul-13 22:29N 47°38' W 122°23'0 0.0
2018-Jul-13 21:59N 47°38' W 122°23'0 0.0
2018-Jul-13 21:26N 47°38' W 122°23'0 0.0
2018-Jul-13 20:50N 47°38' W 122°23'0 0.0
2018-Jul-13 20:26N 47°38' W 122°23'0 0.0
2018-Jul-13 19:59N 47°38' W 122°23'0 0.0
2018-Jul-13 19:29N 47°38' W 122°23'0 0.0
2018-Jul-13 18:59N 47°38' W 122°23'0 0.0
2018-Jul-13 18:29N 47°38' W 122°23'0 0.0
2018-Jul-13 17:59N 47°38' W 122°23'0 0.0
2018-Jul-13 17:29N 47°38' W 122°23'0 0.0
2018-Jul-13 16:59N 47°38' W 122°23'0 0.0
2018-Jul-13 16:29N 47°38' W 122°23'0 0.0
2018-Jul-13 15:59N 47°38' W 122°23'0 0.0
2018-Jul-13 15:29N 47°38' W 122°23'0 0.0
2018-Jul-13 14:59N 47°38' W 122°23'0 0.0
2018-Jul-13 14:29N 47°38' W 122°23'0 0.0
2018-Jul-13 13:29N 47°38' W 122°23'0 0.0
2018-Jul-13 12:59N 47°38' W 122°23'0 0.0
2018-Jul-13 12:30N 47°38' W 122°23'1 2.1
2018-Jul-13 12:00N 47°37' W 122°24'510.6
2018-Jul-13 11:30N 47°42' W 122°28'613.0
2018-Jul-13 11:00N 47°48' W 122°28'612.8
2018-Jul-13 10:30N 47°55' W 122°30'1212.9
2018-Jul-13 09:33N 48°05' W 122°40'312.4
2018-Jul-13 09:19N 48°07' W 122°42'514.2
2018-Jul-13 08:57N 48°11' W 122°48'713.8
2018-Jul-13 08:28N 48°11' W 122°58'613.6
2018-Jul-13 08:01N 48°12' W 123°07'713.2
2018-Jul-13 07:30N 48°10' W 123°17'510.2
2018-Jul-13 07:00N 48°10' W 123°25'12 2.1
2018-Jul-13 01:28N 48°22' W 123°25'2 0.2
2018-Jul-12 14:58N 48°24' W 123°24'613.4
2018-Jul-12 14:29N 48°17' W 123°26'814.1
2018-Jul-12 13:56N 48°13' W 123°36'815.5
2018-Jul-12 13:27N 48°13' W 123°47'816.4
2018-Jul-12 12:57N 48°15' W 123°59'716.3
2018-Jul-12 12:30N 48°18' W 124°09'816.7
2018-Jul-12 12:00N 48°22' W 124°20'916.8
2018-Jul-12 11:29N 48°25' W 124°32'816.5
2018-Jul-12 11:00N 48°28' W 124°43'816.7
2018-Jul-12 10:30N 48°29' W 124°56'917.4
2018-Jul-12 10:00N 48°29' W 125°09'917.3
2018-Jul-12 09:30N 48°31' W 125°21'817.1
2018-Jul-12 09:00N 48°35' W 125°32'917.3
2018-Jul-12 08:30N 48°40' W 125°44'917.5
2018-Jul-12 08:00N 48°44' W 125°55'917.7
2018-Jul-12 07:30N 48°49' W 126°06'918.1
2018-Jul-12 07:00N 48°54' W 126°18'918.2
2018-Jul-12 06:30N 48°59' W 126°30'918.3
2018-Jul-12 06:00N 49°03' W 126°42'918.3
2018-Jul-12 05:30N 49°08' W 126°54'918.1
2018-Jul-12 05:00N 49°13' W 127°06'1018.1
2018-Jul-12 04:28N 49°18' W 127°18'3317.8
2018-Jul-12 02:36N 49°35' W 128°02'217.8
2018-Jul-12 02:30N 49°36' W 128°04'1417.7
2018-Jul-12 01:42N 49°44' W 128°23'317.7
2018-Jul-12 01:31N 49°45' W 128°27'917.7
2018-Jul-12 01:00N 49°50' W 128°39'918.0
2018-Jul-12 00:29N 49°55' W 128°52'817.9
2018-Jul-12 00:00N 49°59' W 129°03'1018.1
2018-Jul-11 23:29N 50°04' W 129°16'918.1
2018-Jul-11 23:00N 50°09' W 129°27'918.1
2018-Jul-11 22:30N 50°14' W 129°39'917.9
2018-Jul-11 22:00N 50°18' W 129°51'917.9
2018-Jul-11 21:30N 50°23' W 130°03'917.3
2018-Jul-11 21:01N 50°29' W 130°12'1417.7
2018-Jul-11 20:14N 50°41' W 130°24'517.7
2018-Jul-11 19:59N 50°44' W 130°28'1117.7
2018-Jul-11 19:22N 50°53' W 130°38'  

Dump ship's entire track history